sensor_id;sensor_type;location;lat;lon;timestamp;P1;durP1;ratioP1;P2;durP2;ratioP2
22904;SDS011;11619;50.140;8.518;2023-07-22T00:02:00;5.50;;;5.00;;
22904;SDS011;11619;50.140;8.518;2023-07-22T00:04:26;6.65;;;5.20;;
22904;SDS011;11619;50.140;8.518;2023-07-22T00:06:53;6.05;;;4.93;;
22904;SDS011;11619;50.140;8.518;2023-07-22T00:09:19;5.70;;;5.20;;
22904;SDS011;11619;50.140;8.518;2023-07-22T00:11:46;5.93;;;5.30;;
22904;SDS011;11619;50.140;8.518;2023-07-22T00:14:12;6.63;;;5.60;;
22904;SDS011;11619;50.140;8.518;2023-07-22T00:16:40;6.30;;;5.38;;
22904;SDS011;11619;50.140;8.518;2023-07-22T00:19:06;5.30;;;4.80;;
22904;SDS011;11619;50.140;8.518;2023-07-22T00:21:33;5.95;;;5.30;;
22904;SDS011;11619;50.140;8.518;2023-07-22T00:24:02;5.70;;;5.20;;
22904;SDS011;11619;50.140;8.518;2023-07-22T00:26:30;5.22;;;4.72;;
22904;SDS011;11619;50.140;8.518;2023-07-22T00:28:59;5.85;;;4.60;;
22904;SDS011;11619;50.140;8.518;2023-07-22T00:31:25;6.10;;;4.85;;
22904;SDS011;11619;50.140;8.518;2023-07-22T00:33:53;5.53;;;5.00;;
22904;SDS011;11619;50.140;8.518;2023-07-22T00:36:20;4.80;;;4.40;;
22904;SDS011;11619;50.140;8.518;2023-07-22T00:38:47;5.18;;;4.68;;
22904;SDS011;11619;50.140;8.518;2023-07-22T00:41:13;5.30;;;4.65;;
22904;SDS011;11619;50.140;8.518;2023-07-22T00:43:40;5.95;;;5.45;;
22904;SDS011;11619;50.140;8.518;2023-07-22T00:46:07;6.50;;;4.95;;
22904;SDS011;11619;50.140;8.518;2023-07-22T00:48:33;6.57;;;5.90;;
22904;SDS011;11619;50.140;8.518;2023-07-22T00:51:00;5.57;;;5.00;;
22904;SDS011;11619;50.140;8.518;2023-07-22T00:53:26;5.30;;;4.50;;
22904;SDS011;11619;50.140;8.518;2023-07-22T00:55:53;5.20;;;4.72;;
22904;SDS011;11619;50.140;8.518;2023-07-22T00:58:20;7.63;;;4.45;;
22904;SDS011;11619;50.140;8.518;2023-07-22T01:00:47;5.55;;;4.40;;
22904;SDS011;11619;50.140;8.518;2023-07-22T01:03:14;5.75;;;4.63;;
22904;SDS011;11619;50.140;8.518;2023-07-22T01:05:41;6.65;;;4.50;;
22904;SDS011;11619;50.140;8.518;2023-07-22T01:08:08;5.45;;;4.95;;
22904;SDS011;11619;50.140;8.518;2023-07-22T01:10:34;6.68;;;5.57;;
22904;SDS011;11619;50.140;8.518;2023-07-22T01:13:01;6.93;;;5.47;;
22904;SDS011;11619;50.140;8.518;2023-07-22T01:15:27;5.22;;;4.75;;
22904;SDS011;11619;50.140;8.518;2023-07-22T01:17:54;5.78;;;5.10;;
22904;SDS011;11619;50.140;8.518;2023-07-22T01:20:22;6.47;;;5.10;;
22904;SDS011;11619;50.140;8.518;2023-07-22T01:22:50;5.05;;;4.55;;
22904;SDS011;11619;50.140;8.518;2023-07-22T01:25:19;5.32;;;4.57;;
22904;SDS011;11619;50.140;8.518;2023-07-22T01:27:49;5.35;;;4.75;;
22904;SDS011;11619;50.140;8.518;2023-07-22T01:30:16;5.00;;;4.50;;
22904;SDS011;11619;50.140;8.518;2023-07-22T01:32:44;5.03;;;4.53;;
22904;SDS011;11619;50.140;8.518;2023-07-22T01:35:10;4.93;;;4.43;;
22904;SDS011;11619;50.140;8.518;2023-07-22T01:37:37;4.88;;;4.30;;
22904;SDS011;11619;50.140;8.518;2023-07-22T01:40:03;4.55;;;4.13;;
22904;SDS011;11619;50.140;8.518;2023-07-22T01:42:39;4.65;;;4.07;;
22904;SDS011;11619;50.140;8.518;2023-07-22T01:45:06;4.43;;;3.92;;
22904;SDS011;11619;50.140;8.518;2023-07-22T01:47:37;4.65;;;4.25;;
22904;SDS011;11619;50.140;8.518;2023-07-22T01:50:05;4.50;;;4.10;;
22904;SDS011;11619;50.140;8.518;2023-07-22T01:52:32;5.03;;;3.97;;
22904;SDS011;11619;50.140;8.518;2023-07-22T01:54:59;4.53;;;4.05;;
22904;SDS011;11619;50.140;8.518;2023-07-22T01:57:25;4.18;;;3.78;;
22904;SDS011;11619;50.140;8.518;2023-07-22T01:59:52;4.43;;;4.03;;
22904;SDS011;11619;50.140;8.518;2023-07-22T02:02:19;4.60;;;4.10;;
22904;SDS011;11619;50.140;8.518;2023-07-22T02:04:46;4.72;;;4.32;;
22904;SDS011;11619;50.140;8.518;2023-07-22T02:07:12;4.75;;;4.35;;
22904;SDS011;11619;50.140;8.518;2023-07-22T02:09:39;5.10;;;4.53;;
22904;SDS011;11619;50.140;8.518;2023-07-22T02:12:06;4.38;;;3.97;;
22904;SDS011;11619;50.140;8.518;2023-07-22T02:14:33;5.22;;;4.72;;
22904;SDS011;11619;50.140;8.518;2023-07-22T02:17:00;5.13;;;4.63;;
22904;SDS011;11619;50.140;8.518;2023-07-22T02:19:26;4.78;;;4.30;;
22904;SDS011;11619;50.140;8.518;2023-07-22T02:21:53;6.38;;;4.43;;
22904;SDS011;11619;50.140;8.518;2023-07-22T02:24:21;5.18;;;4.32;;
22904;SDS011;11619;50.140;8.518;2023-07-22T02:26:47;4.70;;;4.30;;
22904;SDS011;11619;50.140;8.518;2023-07-22T02:29:14;10.40;;;4.68;;
22904;SDS011;11619;50.140;8.518;2023-07-22T02:31:40;4.30;;;3.90;;
22904;SDS011;11619;50.140;8.518;2023-07-22T02:34:07;4.90;;;4.45;;
22904;SDS011;11619;50.140;8.518;2023-07-22T02:36:33;6.35;;;4.80;;
22904;SDS011;11619;50.140;8.518;2023-07-22T02:39:00;4.75;;;4.35;;
22904;SDS011;11619;50.140;8.518;2023-07-22T02:41:26;5.65;;;5.13;;
22904;SDS011;11619;50.140;8.518;2023-07-22T02:43:53;8.85;;;5.70;;
22904;SDS011;11619;50.140;8.518;2023-07-22T02:46:19;6.75;;;6.15;;
22904;SDS011;11619;50.140;8.518;2023-07-22T02:48:46;6.82;;;6.13;;
22904;SDS011;11619;50.140;8.518;2023-07-22T02:51:12;5.93;;;5.43;;
22904;SDS011;11619;50.140;8.518;2023-07-22T02:53:39;6.18;;;5.57;;
22904;SDS011;11619;50.140;8.518;2023-07-22T02:56:07;5.70;;;5.20;;
22904;SDS011;11619;50.140;8.518;2023-07-22T02:58:33;7.97;;;5.43;;
22904;SDS011;11619;50.140;8.518;2023-07-22T03:01:00;7.82;;;5.78;;
22904;SDS011;11619;50.140;8.518;2023-07-22T03:03:26;5.90;;;4.82;;
22904;SDS011;11619;50.140;8.518;2023-07-22T03:05:53;6.55;;;5.95;;
22904;SDS011;11619;50.140;8.518;2023-07-22T03:08:19;6.43;;;4.78;;
22904;SDS011;11619;50.140;8.518;2023-07-22T03:10:46;5.38;;;4.97;;
22904;SDS011;11619;50.140;8.518;2023-07-22T03:13:15;6.13;;;5.45;;
22904;SDS011;11619;50.140;8.518;2023-07-22T03:15:42;5.70;;;4.97;;
22904;SDS011;11619;50.140;8.518;2023-07-22T03:18:08;6.00;;;5.40;;
22904;SDS011;11619;50.140;8.518;2023-07-22T03:20:36;5.90;;;5.32;;
22904;SDS011;11619;50.140;8.518;2023-07-22T03:23:03;5.20;;;4.70;;
22904;SDS011;11619;50.140;8.518;2023-07-22T03:25:30;6.75;;;6.05;;
22904;SDS011;11619;50.140;8.518;2023-07-22T03:28:04;7.05;;;6.00;;
22904;SDS011;11619;50.140;8.518;2023-07-22T03:30:32;9.50;;;6.10;;
22904;SDS011;11619;50.140;8.518;2023-07-22T03:32:59;7.28;;;6.43;;
22904;SDS011;11619;50.140;8.518;2023-07-22T03:35:26;6.72;;;6.13;;
22904;SDS011;11619;50.140;8.518;2023-07-22T03:37:54;6.72;;;6.05;;
22904;SDS011;11619;50.140;8.518;2023-07-22T03:40:20;8.23;;;6.53;;
22904;SDS011;11619;50.140;8.518;2023-07-22T03:42:48;7.45;;;6.38;;
22904;SDS011;11619;50.140;8.518;2023-07-22T03:45:16;6.68;;;6.07;;
22904;SDS011;11619;50.140;8.518;2023-07-22T03:47:46;7.18;;;6.47;;
22904;SDS011;11619;50.140;8.518;2023-07-22T03:50:17;7.20;;;5.93;;
22904;SDS011;11619;50.140;8.518;2023-07-22T03:52:43;6.00;;;5.40;;
22904;SDS011;11619;50.140;8.518;2023-07-22T03:55:10;7.20;;;6.50;;
22904;SDS011;11619;50.140;8.518;2023-07-22T03:57:36;7.10;;;6.32;;
22904;SDS011;11619;50.140;8.518;2023-07-22T04:00:03;7.10;;;6.40;;
22904;SDS011;11619;50.140;8.518;2023-07-22T04:02:31;6.55;;;5.95;;
22904;SDS011;11619;50.140;8.518;2023-07-22T04:04:58;7.90;;;6.95;;
22904;SDS011;11619;50.140;8.518;2023-07-22T04:07:24;8.82;;;6.65;;
22904;SDS011;11619;50.140;8.518;2023-07-22T04:09:50;6.82;;;6.13;;
22904;SDS011;11619;50.140;8.518;2023-07-22T04:12:17;5.97;;;5.45;;
22904;SDS011;11619;50.140;8.518;2023-07-22T04:14:43;7.38;;;6.75;;
22904;SDS011;11619;50.140;8.518;2023-07-22T04:17:10;11.38;;;6.30;;
22904;SDS011;11619;50.140;8.518;2023-07-22T04:19:36;7.15;;;6.45;;
22904;SDS011;11619;50.140;8.518;2023-07-22T04:22:03;7.13;;;6.38;;
22904;SDS011;11619;50.140;8.518;2023-07-22T04:24:30;6.30;;;5.70;;
22904;SDS011;11619;50.140;8.518;2023-07-22T04:26:58;6.75;;;6.13;;
22904;SDS011;11619;50.140;8.518;2023-07-22T04:29:24;10.07;;;5.95;;
22904;SDS011;11619;50.140;8.518;2023-07-22T04:31:51;6.60;;;6.00;;
22904;SDS011;11619;50.140;8.518;2023-07-22T04:34:17;9.13;;;6.18;;
22904;SDS011;11619;50.140;8.518;2023-07-22T04:36:43;6.93;;;6.13;;
22904;SDS011;11619;50.140;8.518;2023-07-22T04:39:10;6.78;;;6.07;;
22904;SDS011;11619;50.140;8.518;2023-07-22T04:41:36;6.97;;;6.20;;
22904;SDS011;11619;50.140;8.518;2023-07-22T04:44:03;6.93;;;6.22;;
22904;SDS011;11619;50.140;8.518;2023-07-22T04:46:29;8.07;;;5.78;;
22904;SDS011;11619;50.140;8.518;2023-07-22T04:48:56;7.20;;;6.45;;
22904;SDS011;11619;50.140;8.518;2023-07-22T04:51:24;11.57;;;6.32;;
22904;SDS011;11619;50.140;8.518;2023-07-22T04:53:50;6.65;;;6.03;;
22904;SDS011;11619;50.140;8.518;2023-07-22T04:56:17;7.22;;;6.53;;
22904;SDS011;11619;50.140;8.518;2023-07-22T04:58:43;7.07;;;6.25;;
22904;SDS011;11619;50.140;8.518;2023-07-22T05:01:10;8.80;;;6.95;;
22904;SDS011;11619;50.140;8.518;2023-07-22T05:03:36;7.45;;;6.40;;
22904;SDS011;11619;50.140;8.518;2023-07-22T05:06:03;9.70;;;7.93;;
22904;SDS011;11619;50.140;8.518;2023-07-22T05:08:29;7.53;;;6.57;;
22904;SDS011;11619;50.140;8.518;2023-07-22T05:10:56;8.32;;;7.10;;
22904;SDS011;11619;50.140;8.518;2023-07-22T05:13:22;8.45;;;7.30;;
22904;SDS011;11619;50.140;8.518;2023-07-22T05:15:49;7.22;;;6.53;;
22904;SDS011;11619;50.140;8.518;2023-07-22T05:18:15;7.78;;;6.97;;
22904;SDS011;11619;50.140;8.518;2023-07-22T05:20:41;7.80;;;7.03;;
22904;SDS011;11619;50.140;8.518;2023-07-22T05:23:08;7.32;;;6.63;;
22904;SDS011;11619;50.140;8.518;2023-07-22T05:25:34;8.50;;;7.43;;
22904;SDS011;11619;50.140;8.518;2023-07-22T05:28:01;8.95;;;8.05;;
22904;SDS011;11619;50.140;8.518;2023-07-22T05:30:27;8.55;;;7.20;;
22904;SDS011;11619;50.140;8.518;2023-07-22T05:33:01;10.25;;;8.13;;
22904;SDS011;11619;50.140;8.518;2023-07-22T05:35:28;9.60;;;8.55;;
22904;SDS011;11619;50.140;8.518;2023-07-22T05:37:54;10.88;;;8.05;;
22904;SDS011;11619;50.140;8.518;2023-07-22T05:40:21;13.23;;;8.00;;
22904;SDS011;11619;50.140;8.518;2023-07-22T05:42:47;11.45;;;8.75;;
22904;SDS011;11619;50.140;8.518;2023-07-22T05:45:13;8.55;;;7.18;;
22904;SDS011;11619;50.140;8.518;2023-07-22T05:47:42;8.50;;;7.60;;
22904;SDS011;11619;50.140;8.518;2023-07-22T05:50:08;8.18;;;7.30;;
22904;SDS011;11619;50.140;8.518;2023-07-22T05:52:35;8.75;;;7.82;;
22904;SDS011;11619;50.140;8.518;2023-07-22T05:55:02;10.18;;;7.85;;
22904;SDS011;11619;50.140;8.518;2023-07-22T05:57:28;12.63;;;7.85;;
22904;SDS011;11619;50.140;8.518;2023-07-22T05:59:57;8.98;;;7.20;;
22904;SDS011;11619;50.140;8.518;2023-07-22T06:02:34;11.00;;;8.10;;
22904;SDS011;11619;50.140;8.518;2023-07-22T06:05:01;9.77;;;8.13;;
22904;SDS011;11619;50.140;8.518;2023-07-22T06:07:27;8.50;;;7.38;;
22904;SDS011;11619;50.140;8.518;2023-07-22T06:09:54;7.70;;;6.75;;
22904;SDS011;11619;50.140;8.518;2023-07-22T06:12:20;7.30;;;6.60;;
22904;SDS011;11619;50.140;8.518;2023-07-22T06:14:47;7.75;;;6.97;;
22904;SDS011;11619;50.140;8.518;2023-07-22T06:17:13;7.55;;;6.75;;
22904;SDS011;11619;50.140;8.518;2023-07-22T06:19:40;7.50;;;6.80;;
22904;SDS011;11619;50.140;8.518;2023-07-22T06:22:06;7.57;;;6.63;;
22904;SDS011;11619;50.140;8.518;2023-07-22T06:24:33;8.13;;;7.10;;
22904;SDS011;11619;50.140;8.518;2023-07-22T06:26:59;8.38;;;7.55;;
22904;SDS011;11619;50.140;8.518;2023-07-22T06:29:26;6.90;;;6.30;;
22904;SDS011;11619;50.140;8.518;2023-07-22T06:31:52;7.72;;;6.93;;
22904;SDS011;11619;50.140;8.518;2023-07-22T06:34:19;6.78;;;6.07;;
22904;SDS011;11619;50.140;8.518;2023-07-22T06:36:45;7.38;;;6.20;;
22904;SDS011;11619;50.140;8.518;2023-07-22T06:39:12;9.23;;;5.95;;
22904;SDS011;11619;50.140;8.518;2023-07-22T06:41:39;7.28;;;5.28;;
22904;SDS011;11619;50.140;8.518;2023-07-22T06:44:05;5.57;;;3.78;;
22904;SDS011;11619;50.140;8.518;2023-07-22T06:46:32;6.38;;;5.18;;
22904;SDS011;11619;50.140;8.518;2023-07-22T06:48:59;7.57;;;5.38;;
22904;SDS011;11619;50.140;8.518;2023-07-22T06:51:25;7.50;;;5.55;;
22904;SDS011;11619;50.140;8.518;2023-07-22T06:53:51;11.00;;;5.72;;
22904;SDS011;11619;50.140;8.518;2023-07-22T06:56:18;7.15;;;5.07;;
22904;SDS011;11619;50.140;8.518;2023-07-22T06:58:44;6.03;;;5.43;;
22904;SDS011;11619;50.140;8.518;2023-07-22T07:01:11;9.05;;;5.97;;
22904;SDS011;11619;50.140;8.518;2023-07-22T07:03:37;13.15;;;6.90;;
22904;SDS011;11619;50.140;8.518;2023-07-22T07:06:04;9.10;;;6.03;;
22904;SDS011;11619;50.140;8.518;2023-07-22T07:08:30;8.43;;;6.22;;
22904;SDS011;11619;50.140;8.518;2023-07-22T07:10:58;6.82;;;5.93;;
22904;SDS011;11619;50.140;8.518;2023-07-22T07:13:25;6.93;;;6.22;;
22904;SDS011;11619;50.140;8.518;2023-07-22T07:15:52;10.75;;;8.68;;
22904;SDS011;11619;50.140;8.518;2023-07-22T07:18:18;10.93;;;9.65;;
22904;SDS011;11619;50.140;8.518;2023-07-22T07:20:45;7.32;;;6.53;;
22904;SDS011;11619;50.140;8.518;2023-07-22T07:23:14;9.10;;;6.75;;
22904;SDS011;11619;50.140;8.518;2023-07-22T07:25:42;8.40;;;7.55;;
22904;SDS011;11619;50.140;8.518;2023-07-22T07:28:08;8.75;;;7.63;;
22904;SDS011;11619;50.140;8.518;2023-07-22T07:30:35;10.98;;;8.32;;
22904;SDS011;11619;50.140;8.518;2023-07-22T07:33:01;10.98;;;8.30;;
22904;SDS011;11619;50.140;8.518;2023-07-22T07:35:28;21.55;;;6.97;;
22904;SDS011;11619;50.140;8.518;2023-07-22T07:37:54;19.98;;;7.20;;
22904;SDS011;11619;50.140;8.518;2023-07-22T07:40:21;10.35;;;7.55;;
22904;SDS011;11619;50.140;8.518;2023-07-22T07:42:47;13.00;;;6.90;;
22904;SDS011;11619;50.140;8.518;2023-07-22T07:45:14;7.53;;;6.70;;
22904;SDS011;11619;50.140;8.518;2023-07-22T07:47:41;8.02;;;6.72;;
22904;SDS011;11619;50.140;8.518;2023-07-22T07:50:08;10.45;;;7.28;;
22904;SDS011;11619;50.140;8.518;2023-07-22T07:52:34;11.32;;;6.45;;
22904;SDS011;11619;50.140;8.518;2023-07-22T07:55:01;7.90;;;6.88;;
22904;SDS011;11619;50.140;8.518;2023-07-22T07:57:28;6.82;;;6.03;;
22904;SDS011;11619;50.140;8.518;2023-07-22T07:59:54;8.60;;;5.97;;
22904;SDS011;11619;50.140;8.518;2023-07-22T08:02:21;6.70;;;5.25;;
22904;SDS011;11619;50.140;8.518;2023-07-22T08:04:48;7.45;;;5.53;;
22904;SDS011;11619;50.140;8.518;2023-07-22T08:07:16;7.88;;;6.72;;
22904;SDS011;11619;50.140;8.518;2023-07-22T08:09:43;10.00;;;6.18;;
22904;SDS011;11619;50.140;8.518;2023-07-22T08:12:10;7.88;;;6.82;;
22904;SDS011;11619;50.140;8.518;2023-07-22T08:14:36;7.05;;;6.10;;
22904;SDS011;11619;50.140;8.518;2023-07-22T08:17:03;7.10;;;6.03;;
22904;SDS011;11619;50.140;8.518;2023-07-22T08:19:29;6.80;;;6.03;;
22904;SDS011;11619;50.140;8.518;2023-07-22T08:21:56;7.40;;;6.60;;
22904;SDS011;11619;50.140;8.518;2023-07-22T08:24:22;6.95;;;6.03;;
22904;SDS011;11619;50.140;8.518;2023-07-22T08:26:49;7.93;;;6.30;;
22904;SDS011;11619;50.140;8.518;2023-07-22T08:29:15;6.15;;;5.40;;
22904;SDS011;11619;50.140;8.518;2023-07-22T08:31:42;9.68;;;6.40;;
22904;SDS011;11619;50.140;8.518;2023-07-22T08:34:08;9.57;;;6.85;;
22904;SDS011;11619;50.140;8.518;2023-07-22T08:36:35;6.88;;;6.18;;
22904;SDS011;11619;50.140;8.518;2023-07-22T08:39:02;8.70;;;6.40;;
22904;SDS011;11619;50.140;8.518;2023-07-22T08:41:29;5.85;;;5.35;;
22904;SDS011;11619;50.140;8.518;2023-07-22T08:43:56;6.90;;;5.95;;
22904;SDS011;11619;50.140;8.518;2023-07-22T08:46:24;6.20;;;5.57;;
22904;SDS011;11619;50.140;8.518;2023-07-22T08:48:55;7.25;;;5.82;;
22904;SDS011;11619;50.140;8.518;2023-07-22T08:51:22;7.32;;;6.60;;
22904;SDS011;11619;50.140;8.518;2023-07-22T08:53:50;8.07;;;6.25;;
22904;SDS011;11619;50.140;8.518;2023-07-22T08:56:36;7.45;;;5.55;;
22904;SDS011;11619;50.140;8.518;2023-07-22T08:59:03;8.98;;;7.05;;
22904;SDS011;11619;50.140;8.518;2023-07-22T09:01:32;7.47;;;6.78;;
22904;SDS011;11619;50.140;8.518;2023-07-22T09:04:00;7.25;;;5.72;;
22904;SDS011;11619;50.140;8.518;2023-07-22T09:06:27;7.82;;;6.22;;
22904;SDS011;11619;50.140;8.518;2023-07-22T09:08:54;7.25;;;5.65;;
22904;SDS011;11619;50.140;8.518;2023-07-22T09:11:23;6.25;;;5.60;;
22904;SDS011;11619;50.140;8.518;2023-07-22T09:13:50;7.53;;;5.97;;
22904;SDS011;11619;50.140;8.518;2023-07-22T09:16:18;8.93;;;5.60;;
22904;SDS011;11619;50.140;8.518;2023-07-22T09:18:44;5.82;;;5.30;;
22904;SDS011;11619;50.140;8.518;2023-07-22T09:21:11;4.57;;;4.18;;
22904;SDS011;11619;50.140;8.518;2023-07-22T09:23:38;10.27;;;5.07;;
22904;SDS011;11619;50.140;8.518;2023-07-22T09:26:08;6.65;;;5.13;;
22904;SDS011;11619;50.140;8.518;2023-07-22T09:28:57;6.47;;;4.43;;
22904;SDS011;11619;50.140;8.518;2023-07-22T09:31:27;4.93;;;4.43;;
22904;SDS011;11619;50.140;8.518;2023-07-22T09:34:09;4.40;;;4.00;;
22904;SDS011;11619;50.140;8.518;2023-07-22T09:36:55;4.57;;;3.85;;
22904;SDS011;11619;50.140;8.518;2023-07-22T09:39:23;6.60;;;4.78;;
22904;SDS011;11619;50.140;8.518;2023-07-22T09:41:50;6.38;;;4.45;;
22904;SDS011;11619;50.140;8.518;2023-07-22T09:44:18;5.65;;;4.38;;
22904;SDS011;11619;50.140;8.518;2023-07-22T09:46:48;4.68;;;4.13;;
22904;SDS011;11619;50.140;8.518;2023-07-22T09:49:16;7.07;;;4.63;;
22904;SDS011;11619;50.140;8.518;2023-07-22T09:51:43;5.28;;;4.78;;
22904;SDS011;11619;50.140;8.518;2023-07-22T09:54:14;7.50;;;4.72;;
22904;SDS011;11619;50.140;8.518;2023-07-22T09:56:44;5.70;;;3.95;;
22904;SDS011;11619;50.140;8.518;2023-07-22T09:59:12;7.30;;;4.40;;
22904;SDS011;11619;50.140;8.518;2023-07-22T10:01:39;8.38;;;4.72;;
22904;SDS011;11619;50.140;8.518;2023-07-22T10:04:06;4.65;;;3.97;;
22904;SDS011;11619;50.140;8.518;2023-07-22T10:06:33;4.70;;;4.30;;
22904;SDS011;11619;50.140;8.518;2023-07-22T10:09:01;4.90;;;4.15;;
22904;SDS011;11619;50.140;8.518;2023-07-22T10:11:30;6.00;;;3.75;;
22904;SDS011;11619;50.140;8.518;2023-07-22T10:13:58;6.35;;;3.72;;
22904;SDS011;11619;50.140;8.518;2023-07-22T10:16:24;3.63;;;3.33;;
22904;SDS011;11619;50.140;8.518;2023-07-22T10:18:52;5.60;;;3.70;;
22904;SDS011;11619;50.140;8.518;2023-07-22T10:21:21;5.07;;;3.53;;
22904;SDS011;11619;50.140;8.518;2023-07-22T10:23:48;3.88;;;3.30;;
22904;SDS011;11619;50.140;8.518;2023-07-22T10:26:17;3.92;;;3.47;;
22904;SDS011;11619;50.140;8.518;2023-07-22T10:28:51;4.30;;;3.60;;
22904;SDS011;11619;50.140;8.518;2023-07-22T10:31:18;3.70;;;3.38;;
22904;SDS011;11619;50.140;8.518;2023-07-22T10:33:46;5.65;;;3.53;;
22904;SDS011;11619;50.140;8.518;2023-07-22T10:36:16;4.10;;;3.22;;
22904;SDS011;11619;50.140;8.518;2023-07-22T10:38:43;3.58;;;3.28;;
22904;SDS011;11619;50.140;8.518;2023-07-22T10:41:16;3.47;;;3.17;;
22904;SDS011;11619;50.140;8.518;2023-07-22T10:43:53;4.87;;;3.57;;
22904;SDS011;11619;50.140;8.518;2023-07-22T10:46:33;3.97;;;3.58;;
22904;SDS011;11619;50.140;8.518;2023-07-22T10:49:09;5.60;;;3.65;;
22904;SDS011;11619;50.140;8.518;2023-07-22T10:51:39;5.03;;;3.42;;
22904;SDS011;11619;50.140;8.518;2023-07-22T10:54:13;4.20;;;3.40;;
22904;SDS011;11619;50.140;8.518;2023-07-22T10:56:41;6.15;;;3.83;;
22904;SDS011;11619;50.140;8.518;2023-07-22T10:59:12;5.05;;;3.30;;
22904;SDS011;11619;50.140;8.518;2023-07-22T11:01:39;4.13;;;3.60;;
22904;SDS011;11619;50.140;8.518;2023-07-22T11:04:13;5.32;;;3.90;;
22904;SDS011;11619;50.140;8.518;2023-07-22T11:09:49;3.97;;;3.40;;
22904;SDS011;11619;50.140;8.518;2023-07-22T11:12:13;6.72;;;3.78;;
22904;SDS011;11619;50.140;8.518;2023-07-22T11:17:16;3.77;;;3.47;;
22904;SDS011;11619;50.140;8.518;2023-07-22T11:19:43;4.07;;;3.65;;
22904;SDS011;11619;50.140;8.518;2023-07-22T11:22:11;5.75;;;3.53;;
22904;SDS011;11619;50.140;8.518;2023-07-22T11:24:38;3.90;;;3.50;;
22904;SDS011;11619;50.140;8.518;2023-07-22T11:27:05;6.78;;;3.58;;
22904;SDS011;11619;50.140;8.518;2023-07-22T11:29:33;4.05;;;3.63;;
22904;SDS011;11619;50.140;8.518;2023-07-22T11:31:59;6.80;;;3.85;;
22904;SDS011;11619;50.140;8.518;2023-07-22T11:34:26;3.97;;;3.40;;
22904;SDS011;11619;50.140;8.518;2023-07-22T11:36:53;3.75;;;3.30;;
22904;SDS011;11619;50.140;8.518;2023-07-22T11:39:21;5.03;;;3.63;;
22904;SDS011;11619;50.140;8.518;2023-07-22T11:41:48;3.67;;;3.38;;
22904;SDS011;11619;50.140;8.518;2023-07-22T11:44:18;4.85;;;3.58;;
22904;SDS011;11619;50.140;8.518;2023-07-22T11:47:04;6.72;;;3.30;;
22904;SDS011;11619;50.140;8.518;2023-07-22T11:49:35;5.47;;;3.83;;
22904;SDS011;11619;50.140;8.518;2023-07-22T11:52:06;9.75;;;3.88;;
22904;SDS011;11619;50.140;8.518;2023-07-22T11:54:35;4.43;;;3.33;;
22904;SDS011;11619;50.140;8.518;2023-07-22T11:57:18;7.63;;;3.85;;
22904;SDS011;11619;50.140;8.518;2023-07-22T11:59:47;5.95;;;3.42;;
22904;SDS011;11619;50.140;8.518;2023-07-22T12:02:15;3.60;;;3.28;;
22904;SDS011;11619;50.140;8.518;2023-07-22T12:04:59;6.35;;;3.50;;
22904;SDS011;11619;50.140;8.518;2023-07-22T12:07:30;3.88;;;3.20;;
22904;SDS011;11619;50.140;8.518;2023-07-22T12:10:01;3.72;;;3.38;;
22904;SDS011;11619;50.140;8.518;2023-07-22T12:12:36;4.90;;;4.00;;
22904;SDS011;11619;50.140;8.518;2023-07-22T12:20:13;3.50;;;3.20;;
22904;SDS011;11619;50.140;8.518;2023-07-22T12:22:40;6.78;;;4.07;;
22904;SDS011;11619;50.140;8.518;2023-07-22T12:25:07;4.00;;;3.50;;
22904;SDS011;11619;50.140;8.518;2023-07-22T12:27:34;4.28;;;3.53;;
22904;SDS011;11619;50.140;8.518;2023-07-22T12:30:00;5.95;;;3.70;;
22904;SDS011;11619;50.140;8.518;2023-07-22T12:32:27;4.80;;;3.58;;
22904;SDS011;11619;50.140;8.518;2023-07-22T12:34:53;4.65;;;3.78;;
22904;SDS011;11619;50.140;8.518;2023-07-22T12:37:20;6.28;;;3.13;;
22904;SDS011;11619;50.140;8.518;2023-07-22T12:39:46;7.32;;;3.60;;
22904;SDS011;11619;50.140;8.518;2023-07-22T12:42:13;5.20;;;3.50;;
22904;SDS011;11619;50.140;8.518;2023-07-22T12:44:39;3.92;;;3.50;;
22904;SDS011;11619;50.140;8.518;2023-07-22T12:47:06;5.65;;;3.15;;
22904;SDS011;11619;50.140;8.518;2023-07-22T12:49:33;4.15;;;3.42;;
22904;SDS011;11619;50.140;8.518;2023-07-22T12:52:00;4.40;;;3.33;;
22904;SDS011;11619;50.140;8.518;2023-07-22T12:54:30;4.03;;;3.17;;
22904;SDS011;11619;50.140;8.518;2023-07-22T12:56:57;5.13;;;3.70;;
22904;SDS011;11619;50.140;8.518;2023-07-22T12:59:24;5.35;;;3.63;;
22904;SDS011;11619;50.140;8.518;2023-07-22T13:01:50;4.22;;;3.40;;
22904;SDS011;11619;50.140;8.518;2023-07-22T13:04:17;6.18;;;3.83;;
22904;SDS011;11619;50.140;8.518;2023-07-22T13:06:43;7.95;;;3.30;;
22904;SDS011;11619;50.140;8.518;2023-07-22T13:09:10;3.75;;;3.35;;
22904;SDS011;11619;50.140;8.518;2023-07-22T13:11:36;3.90;;;3.25;;
22904;SDS011;11619;50.140;8.518;2023-07-22T13:14:03;4.25;;;3.42;;
22904;SDS011;11619;50.140;8.518;2023-07-22T13:16:29;4.80;;;3.22;;
22904;SDS011;11619;50.140;8.518;2023-07-22T13:18:56;4.28;;;3.50;;
22904;SDS011;11619;50.140;8.518;2023-07-22T13:21:25;6.47;;;4.07;;
22904;SDS011;11619;50.140;8.518;2023-07-22T13:23:52;4.45;;;3.22;;
22904;SDS011;11619;50.140;8.518;2023-07-22T13:26:19;5.65;;;3.38;;
22904;SDS011;11619;50.140;8.518;2023-07-22T13:28:45;3.95;;;3.55;;
22904;SDS011;11619;50.140;8.518;2023-07-22T13:31:12;3.40;;;3.10;;
22904;SDS011;11619;50.140;8.518;2023-07-22T13:33:38;3.97;;;3.33;;
22904;SDS011;11619;50.140;8.518;2023-07-22T13:36:06;3.90;;;3.50;;
22904;SDS011;11619;50.140;8.518;2023-07-22T13:38:32;6.57;;;3.80;;
22904;SDS011;11619;50.140;8.518;2023-07-22T13:40:59;3.70;;;3.35;;
22904;SDS011;11619;50.140;8.518;2023-07-22T13:43:25;3.58;;;3.28;;
22904;SDS011;11619;50.140;8.518;2023-07-22T13:45:53;5.25;;;3.15;;
22904;SDS011;11619;50.140;8.518;2023-07-22T13:48:19;5.47;;;3.78;;
22904;SDS011;11619;50.140;8.518;2023-07-22T13:50:46;5.25;;;3.35;;
22904;SDS011;11619;50.140;8.518;2023-07-22T13:53:12;5.07;;;3.40;;
22904;SDS011;11619;50.140;8.518;2023-07-22T13:55:39;6.38;;;3.35;;
22904;SDS011;11619;50.140;8.518;2023-07-22T13:58:05;3.60;;;3.30;;
22904;SDS011;11619;50.140;8.518;2023-07-22T14:00:33;4.10;;;3.55;;
22904;SDS011;11619;50.140;8.518;2023-07-22T14:02:59;6.55;;;3.35;;
22904;SDS011;11619;50.140;8.518;2023-07-22T14:05:27;3.60;;;3.30;;
22904;SDS011;11619;50.140;8.518;2023-07-22T14:07:53;3.60;;;3.30;;
22904;SDS011;11619;50.140;8.518;2023-07-22T14:10:20;7.32;;;3.05;;
22904;SDS011;11619;50.140;8.518;2023-07-22T14:12:46;3.67;;;3.33;;
22904;SDS011;11619;50.140;8.518;2023-07-22T14:15:13;3.47;;;3.17;;
22904;SDS011;11619;50.140;8.518;2023-07-22T14:17:39;3.83;;;3.20;;
22904;SDS011;11619;50.140;8.518;2023-07-22T14:20:06;3.75;;;3.05;;
22904;SDS011;11619;50.140;8.518;2023-07-22T14:22:33;5.30;;;3.83;;
22904;SDS011;11619;50.140;8.518;2023-07-22T14:24:59;4.65;;;3.90;;
22904;SDS011;11619;50.140;8.518;2023-07-22T14:27:26;3.58;;;3.22;;
22904;SDS011;11619;50.140;8.518;2023-07-22T14:29:53;4.25;;;3.33;;
22904;SDS011;11619;50.140;8.518;2023-07-22T14:32:19;4.00;;;3.10;;
22904;SDS011;11619;50.140;8.518;2023-07-22T14:34:46;4.70;;;3.33;;
22904;SDS011;11619;50.140;8.518;2023-07-22T14:37:13;4.18;;;2.80;;
22904;SDS011;11619;50.140;8.518;2023-07-22T14:39:40;4.38;;;3.42;;
22904;SDS011;11619;50.140;8.518;2023-07-22T14:42:06;10.88;;;3.95;;
22904;SDS011;11619;50.140;8.518;2023-07-22T14:44:34;4.55;;;3.30;;
22904;SDS011;11619;50.140;8.518;2023-07-22T14:47:00;3.45;;;3.15;;
22904;SDS011;11619;50.140;8.518;2023-07-22T14:49:27;4.20;;;3.13;;
22904;SDS011;11619;50.140;8.518;2023-07-22T14:51:53;6.35;;;3.10;;
22904;SDS011;11619;50.140;8.518;2023-07-22T14:54:20;3.50;;;3.20;;
22904;SDS011;11619;50.140;8.518;2023-07-22T14:56:46;3.10;;;2.90;;
22904;SDS011;11619;50.140;8.518;2023-07-22T14:59:14;8.30;;;3.20;;